createdAt,value
2016-10-10T00:00:09.308Z,1005.32
2016-10-10T00:01:19.297Z,1005.34
2016-10-10T00:02:29.281Z,1005.31
2016-10-10T00:03:39.558Z,1005.32
2016-10-10T00:04:49.534Z,1005.31
2016-10-10T00:06:00.083Z,1005.33
2016-10-10T00:07:10.359Z,1005.31
2016-10-10T00:08:20.659Z,1005.31
2016-10-10T00:09:30.937Z,1005.29
2016-10-10T00:10:40.903Z,1005.31
2016-10-10T00:11:51.192Z,1005.28
2016-10-10T00:13:01.477Z,1005.3
2016-10-10T00:14:11.459Z,1005.3
2016-10-10T00:15:21.437Z,1005.31
2016-10-10T00:16:31.718Z,1005.26
2016-10-10T00:17:42.003Z,1005.27
2016-10-10T00:18:52.291Z,1005.27
2016-10-10T00:20:02.588Z,1005.23
2016-10-10T00:21:12.566Z,1005.27
2016-10-10T00:22:22.856Z,1005.25
2016-10-10T00:23:33.153Z,1005.28
2016-10-10T00:24:43.434Z,1005.27
2016-10-10T00:25:53.417Z,1005.22
2016-10-10T00:27:03.712Z,1005.26
2016-10-10T00:28:13.989Z,1005.24
2016-10-10T00:29:23.980Z,1005.22
2016-10-10T00:30:34.279Z,1005.19
2016-10-10T00:31:44.571Z,1005.17
2016-10-10T00:32:54.880Z,1005.18
2016-10-10T00:34:04.854Z,1005.18
2016-10-10T00:35:15.149Z,1005.16
2016-10-10T00:36:24.828Z,1005.18
2016-10-10T00:37:35.104Z,1005.19
2016-10-10T00:38:45.075Z,1005.19
2016-10-10T00:39:55.353Z,1005.18
2016-10-10T00:41:05.639Z,1005.17
2016-10-10T00:42:15.629Z,1005.19
2016-10-10T00:43:25.920Z,1005.19
2016-10-10T00:44:36.202Z,1005.18
2016-10-10T00:45:46.475Z,1005.2
2016-10-10T00:46:56.457Z,1005.19
2016-10-10T00:48:06.748Z,1005.19
2016-10-10T00:49:17.026Z,1005.19
2016-10-10T00:50:27.311Z,1005.2
2016-10-10T00:51:37.294Z,1005.15
2016-10-10T00:52:47.276Z,1005.17
2016-10-10T00:53:57.558Z,1005.17
2016-10-10T00:55:07.855Z,1005.13
2016-10-10T00:56:18.127Z,1005.16
2016-10-10T00:57:28.109Z,1005.17
2016-10-10T00:58:38.395Z,1005.15
2016-10-10T00:59:48.693Z,1005.13
2016-10-10T01:00:58.969Z,1005.13
2016-10-10T01:02:09.244Z,1005.12
2016-10-10T01:03:19.541Z,1005.14
2016-10-10T01:04:29.832Z,1005.09
2016-10-10T01:05:40.124Z,1005.11
2016-10-10T01:06:50.426Z,1005.11
2016-10-10T01:08:00.728Z,1005.1
2016-10-10T01:09:10.691Z,1005.09
2016-10-10T01:10:21.003Z,1005.06
2016-10-10T01:11:31.293Z,1005.03
2016-10-10T01:12:41.277Z,1005.05
2016-10-10T01:13:51.550Z,1005.05
2016-10-10T01:15:01.523Z,1005.05
2016-10-10T01:16:11.496Z,1005.02
2016-10-10T01:17:21.782Z,1005.04
2016-10-10T01:18:32.080Z,1005.03
2016-10-10T01:19:42.060Z,1005.03
2016-10-10T01:20:52.358Z,1005
2016-10-10T01:22:02.645Z,1004.98
2016-10-10T01:23:12.965Z,1004.97
2016-10-10T01:24:23.241Z,1004.94
2016-10-10T01:25:33.220Z,1004.93
2016-10-10T01:26:43.199Z,1004.92
2016-10-10T01:27:53.172Z,1004.92
2016-10-10T01:29:03.468Z,1004.93
2016-10-10T01:30:13.448Z,1004.87
2016-10-10T01:31:23.733Z,1004.87
2016-10-10T01:32:34.043Z,1004.85
2016-10-10T01:33:44.325Z,1004.83
2016-10-10T01:34:54.326Z,1004.82
2016-10-10T01:36:04.628Z,1004.8
2016-10-10T01:37:14.901Z,1004.78
2016-10-10T01:38:25.182Z,1004.79
2016-10-10T01:39:35.459Z,1004.81
2016-10-10T01:40:45.773Z,1004.84
2016-10-10T01:41:55.772Z,1004.84
2016-10-10T01:43:05.744Z,1004.83
2016-10-10T01:44:16.020Z,1004.83
2016-10-10T01:45:26.332Z,1004.84
2016-10-10T01:46:36.620Z,1004.8
2016-10-10T01:47:46.900Z,1004.77
2016-10-10T01:48:57.177Z,1004.82
2016-10-10T01:50:07.489Z,1004.78
2016-10-10T01:51:17.161Z,1004.78
2016-10-10T01:52:27.442Z,1004.77
2016-10-10T01:53:37.729Z,1004.8
2016-10-10T01:54:48.018Z,1004.76
2016-10-10T01:55:58.313Z,1004.71
2016-10-10T01:57:08.294Z,1004.78
2016-10-10T01:58:18.260Z,1004.74
2016-10-10T01:59:28.227Z,1004.76
2016-10-10T02:00:37.886Z,1004.73
2016-10-10T02:01:47.561Z,1004.74
2016-10-10T02:02:57.544Z,1004.71
2016-10-10T02:04:07.826Z,1004.73
2016-10-10T02:05:18.107Z,1004.71
2016-10-10T02:06:28.398Z,1004.71
2016-10-10T02:07:38.064Z,1004.69
2016-10-10T02:08:47.756Z,1004.7
2016-10-10T02:09:57.754Z,1004.67
2016-10-10T02:11:08.038Z,1004.68
2016-10-10T02:12:18.012Z,1004.65
2016-10-10T02:13:28.283Z,1004.62
2016-10-10T02:14:38.569Z,1004.67
2016-10-10T02:15:48.863Z,1004.67
2016-10-10T02:16:58.863Z,1004.65
2016-10-10T02:18:08.525Z,1004.67
2016-10-10T02:19:18.812Z,1004.63
2016-10-10T02:20:28.182Z,1004.66
2016-10-10T02:21:38.499Z,1004.65
2016-10-10T02:22:48.783Z,1004.69
2016-10-10T02:23:59.075Z,1004.7
2016-10-10T02:25:09.061Z,1004.65
2016-10-10T02:26:19.346Z,1004.69
2016-10-10T02:27:29.640Z,1004.66
2016-10-10T02:28:39.628Z,1004.68
2016-10-10T02:29:49.942Z,1004.66
2016-10-10T02:31:00.219Z,1004.64
2016-10-10T02:32:10.500Z,1004.62
2016-10-10T02:33:20.778Z,1004.6
2016-10-10T02:34:31.065Z,1004.59
2016-10-10T02:35:41.356Z,1004.61
2016-10-10T02:36:51.377Z,1004.59
2016-10-10T02:38:01.664Z,1004.56
2016-10-10T02:39:11.640Z,1004.58
2016-10-10T02:40:22.158Z,1004.55
2016-10-10T02:41:32.130Z,1004.56
2016-10-10T02:42:42.413Z,1004.56
2016-10-10T02:43:52.088Z,1004.55
2016-10-10T02:45:02.379Z,1004.59
2016-10-10T02:46:12.370Z,1004.53
2016-10-10T02:47:22.033Z,1004.56
2016-10-10T02:48:32.021Z,1004.6
2016-10-10T02:49:41.995Z,1004.56
2016-10-10T02:50:52.283Z,1004.53
2016-10-10T02:52:02.609Z,1004.51
2016-10-10T02:53:13.129Z,1004.57
2016-10-10T02:54:23.427Z,1004.56
2016-10-10T02:55:33.709Z,1004.54
2016-10-10T02:56:43.687Z,1004.56
2016-10-10T02:57:53.992Z,1004.58
2016-10-10T02:59:04.263Z,1004.6
2016-10-10T03:00:14.538Z,1004.58
2016-10-10T03:01:24.498Z,1004.56
2016-10-10T03:32:59.509Z,1004.62
2016-10-10T03:34:09.780Z,1004.65
2016-10-10T03:35:20.073Z,1004.66
2016-10-10T03:36:30.344Z,1004.65
2016-10-10T03:37:40.322Z,1004.63
2016-10-10T03:38:50.607Z,1004.61
2016-10-10T03:40:00.580Z,1004.63
2016-10-10T03:41:10.910Z,1004.61
2016-10-10T03:42:21.222Z,1004.6
2016-10-10T03:43:31.548Z,1004.57
2016-10-10T03:44:41.835Z,1004.57
2016-10-10T03:45:52.136Z,1004.58
2016-10-10T03:47:02.424Z,1004.56
2016-10-10T03:48:12.707Z,1004.56
2016-10-10T03:49:22.998Z,1004.56
2016-10-10T03:50:33.285Z,1004.58
2016-10-10T03:51:43.813Z,1004.57
2016-10-10T03:52:54.089Z,1004.59
2016-10-10T03:54:04.374Z,1004.6
2016-10-10T03:55:14.665Z,1004.57
2016-10-10T03:56:24.982Z,1004.58
2016-10-10T03:57:35.273Z,1004.57
2016-10-10T03:58:45.252Z,1004.58
2016-10-10T03:59:55.533Z,1004.54
2016-10-10T04:01:06.053Z,1004.56
2016-10-10T04:02:16.336Z,1004.54
2016-10-10T04:03:26.017Z,1004.53
2016-10-10T04:04:36.304Z,1004.55
2016-10-10T04:05:45.985Z,1004.59
2016-10-10T04:06:55.948Z,1004.54
2016-10-10T04:08:06.229Z,1004.58
2016-10-10T04:09:16.206Z,1004.57
2016-10-10T04:10:26.208Z,1004.59
2016-10-10T04:11:36.499Z,1004.6
2016-10-10T04:12:46.476Z,1004.59
2016-10-10T04:13:56.758Z,1004.58
2016-10-10T04:15:07.044Z,1004.56
2016-10-10T04:16:17.345Z,1004.55
2016-10-10T04:17:27.317Z,1004.58
2016-10-10T04:18:37.609Z,1004.56
2016-10-10T04:19:47.891Z,1004.54
2016-10-10T04:20:57.857Z,1004.55
2016-10-10T04:22:08.154Z,1004.5
2016-10-10T04:23:18.440Z,1004.5
2016-10-10T04:24:28.422Z,1004.49
2016-10-10T04:25:38.709Z,1004.46
2016-10-10T04:26:48.691Z,1004.41
2016-10-10T04:27:58.664Z,1004.46
2016-10-10T04:29:08.325Z,1004.48
2016-10-10T04:30:18.316Z,1004.45
2016-10-10T04:31:28.609Z,1004.46
2016-10-10T04:32:38.894Z,1004.44
2016-10-10T04:33:49.166Z,1004.44
2016-10-10T04:34:59.447Z,1004.44
2016-10-10T04:36:09.751Z,1004.45
2016-10-10T04:37:19.653Z,1004.45
2016-10-10T04:38:29.013Z,1004.42
2016-10-10T04:39:39.004Z,1004.43
2016-10-10T04:40:49.272Z,1004.44
2016-10-10T04:41:59.554Z,1004.43
2016-10-10T04:43:09.858Z,1004.43
2016-10-10T04:44:20.152Z,1004.45
2016-10-10T04:45:30.133Z,1004.46
2016-10-10T04:46:40.115Z,1004.44
2016-10-10T04:47:50.407Z,1004.44
2016-10-10T04:49:00.688Z,1004.44
2016-10-10T04:50:10.980Z,1004.46
2016-10-10T04:51:20.953Z,1004.46
2016-10-10T04:52:30.613Z,1004.48
2016-10-10T04:53:40.600Z,1004.46
2016-10-10T04:54:50.572Z,1004.46
2016-10-10T04:56:00.864Z,1004.46
2016-10-10T04:57:11.160Z,1004.43
2016-10-10T04:58:21.456Z,1004.46
2016-10-10T04:59:31.748Z,1004.45
2016-10-10T05:00:42.040Z,1004.46
2016-10-10T05:01:52.341Z,1004.42
2016-10-10T05:03:02.324Z,1004.46
2016-10-10T05:04:12.616Z,1004.44
2016-10-10T05:05:22.909Z,1004.49
2016-10-10T05:06:33.213Z,1004.44
2016-10-10T05:07:42.584Z,1004.49
2016-10-10T05:08:52.248Z,1004.45
2016-10-10T05:10:01.918Z,1004.52
2016-10-10T05:11:12.207Z,1004.48
2016-10-10T05:12:22.493Z,1004.54
2016-10-10T05:13:32.779Z,1004.52
2016-10-10T05:14:42.445Z,1004.55
2016-10-10T05:15:52.728Z,1004.58
2016-10-10T05:17:02.089Z,1004.6
2016-10-10T05:18:12.368Z,1004.61
2016-10-10T05:19:22.666Z,1004.6
2016-10-10T05:20:32.648Z,1004.61
2016-10-10T05:21:42.630Z,1004.62
2016-10-10T05:22:52.606Z,1004.62
2016-10-10T05:24:02.603Z,1004.6
2016-10-10T05:25:12.885Z,1004.67
2016-10-10T05:26:22.557Z,1004.67
2016-10-10T05:27:32.855Z,1004.67
2016-10-10T05:28:42.215Z,1004.69
2016-10-10T05:29:52.201Z,1004.62
2016-10-10T05:31:02.498Z,1004.69
2016-10-10T05:32:12.795Z,1004.7
2016-10-10T05:33:22.776Z,1004.69
2016-10-10T05:34:32.973Z,1004.73
2016-10-10T05:35:42.957Z,1004.7
2016-10-10T05:36:53.258Z,1004.67
2016-10-10T05:38:02.930Z,1004.72
2016-10-10T05:39:13.231Z,1004.69
2016-10-10T05:40:23.522Z,1004.72
2016-10-10T05:41:33.830Z,1004.76
2016-10-10T05:42:43.500Z,1004.79
2016-10-10T05:43:53.793Z,1004.77
2016-10-10T05:45:04.090Z,1004.79
2016-10-10T05:46:14.381Z,1004.82
2016-10-10T05:47:24.668Z,1004.8
2016-10-10T05:48:34.664Z,1004.83
2016-10-10T05:49:44.971Z,1004.85
2016-10-10T05:50:55.276Z,1004.88
2016-10-10T05:52:05.559Z,1004.85
2016-10-10T05:53:15.846Z,1004.89
2016-10-10T05:54:25.823Z,1004.93
2016-10-10T05:55:35.795Z,1004.96
2016-10-10T05:56:45.796Z,1004.93
2016-10-10T05:57:55.473Z,1004.95
2016-10-10T05:59:05.771Z,1004.9
2016-10-10T06:00:16.046Z,1004.91
2016-10-10T06:01:26.037Z,1004.95
2016-10-10T06:02:36.020Z,1004.94
2016-10-10T06:03:45.381Z,1004.94
2016-10-10T06:04:55.678Z,1004.94
2016-10-10T06:06:05.980Z,1004.98
2016-10-10T06:07:15.651Z,1004.95
2016-10-10T06:08:25.637Z,1005.05
2016-10-10T06:09:35.299Z,1005
2016-10-10T06:10:45.291Z,1005.01
2016-10-10T06:11:55.570Z,1005
2016-10-10T06:13:05.561Z,1005.03
2016-10-10T06:14:15.547Z,1004.98
2016-10-10T06:15:25.834Z,1005
2016-10-10T06:16:36.141Z,1004.97
2016-10-10T06:17:46.437Z,1005
2016-10-10T06:18:55.802Z,1004.97
2016-10-10T06:20:05.788Z,1005.01
2016-10-10T06:21:16.073Z,1005
2016-10-10T06:22:26.343Z,1005.01
2016-10-10T06:23:36.335Z,1005
2016-10-10T06:24:46.300Z,1004.98
2016-10-10T06:25:55.979Z,1004.97
2016-10-10T06:27:06.264Z,1004.95
2016-10-10T06:28:16.542Z,1004.94
2016-10-10T06:29:26.519Z,1004.92
2016-10-10T06:30:36.509Z,1004.9
2016-10-10T06:31:46.495Z,1004.91
2016-10-10T06:32:56.482Z,1004.93
2016-10-10T06:34:06.477Z,1004.91
2016-10-10T06:35:16.766Z,1004.91
2016-10-10T06:36:26.748Z,1004.88
2016-10-10T06:37:36.732Z,1004.84
2016-10-10T06:38:46.701Z,1004.85
2016-10-10T06:39:56.679Z,1004.84
2016-10-10T06:41:06.969Z,1004.82
2016-10-10T06:42:17.246Z,1004.83
2016-10-10T06:43:27.221Z,1004.8
2016-10-10T06:44:37.220Z,1004.83
2016-10-10T06:45:47.191Z,1004.82
2016-10-10T06:46:57.168Z,1004.76
2016-10-10T06:48:07.148Z,1004.75
2016-10-10T06:49:17.127Z,1004.71
2016-10-10T06:50:27.417Z,1004.77
2016-10-10T06:51:37.700Z,1004.78
2016-10-10T06:52:47.062Z,1004.75
2016-10-10T06:53:57.344Z,1004.79
2016-10-10T06:55:07.341Z,1004.82
2016-10-10T06:56:17.006Z,1004.79
2016-10-10T06:57:26.988Z,1004.8
2016-10-10T06:58:37.272Z,1004.85
2016-10-10T06:59:47.557Z,1004.82
2016-10-10T07:00:57.838Z,1004.83
2016-10-10T07:02:07.514Z,1004.87
2016-10-10T07:03:17.812Z,1004.85
2016-10-10T07:04:27.784Z,1004.88
2016-10-10T07:05:37.472Z,1004.87
2016-10-10T07:06:47.751Z,1004.91
2016-10-10T07:07:57.732Z,1004.93
2016-10-10T07:09:07.419Z,1004.95
2016-10-10T07:10:17.401Z,1004.94
2016-10-10T07:11:27.378Z,1004.97
2016-10-10T07:12:37.665Z,1004.94
2016-10-10T07:13:47.963Z,1004.93
2016-10-10T07:14:57.955Z,1004.93
2016-10-10T07:16:07.929Z,1004.96
2016-10-10T07:17:17.901Z,1004.92
2016-10-10T07:18:28.184Z,1004.93
2016-10-10T07:19:38.462Z,1004.9
2016-10-10T07:20:48.442Z,1004.9
2016-10-10T07:21:58.734Z,1004.89
2016-10-10T07:23:08.401Z,1004.9
2016-10-10T07:24:18.671Z,1004.93
2016-10-10T07:25:28.679Z,1004.9
2016-10-10T07:26:38.669Z,1004.95
2016-10-10T07:27:48.962Z,1004.96
2016-10-10T07:28:58.954Z,1004.96
2016-10-10T07:30:09.250Z,1004.98
2016-10-10T07:31:18.919Z,1004.98
2016-10-10T07:32:28.905Z,1005.02
2016-10-10T07:33:39.190Z,1005.01
2016-10-10T07:34:48.866Z,1005.04
2016-10-10T07:35:58.864Z,1005.03
2016-10-10T07:37:08.542Z,1005.04
2016-10-10T07:38:18.876Z,1005.11
2016-10-10T07:39:28.259Z,1005.04
2016-10-10T07:40:38.235Z,1005.04
2016-10-10T07:41:48.521Z,1005.02
2016-10-10T07:42:58.495Z,1005.02
2016-10-10T07:44:08.521Z,1005.02
2016-10-10T07:45:18.834Z,1005.07
2016-10-10T07:46:28.828Z,1005.03
2016-10-10T07:47:39.110Z,1005.06
2016-10-10T07:48:49.316Z,1005.06
2016-10-10T07:49:59.448Z,1005.03
2016-10-10T07:51:09.740Z,1005.04
2016-10-10T07:52:20.043Z,1005.02
2016-10-10T07:53:30.344Z,1005.01
2016-10-10T07:54:40.621Z,1004.99
2016-10-10T07:55:50.602Z,1005
2016-10-10T07:57:00.569Z,1004.95
2016-10-10T07:58:10.252Z,1004.93
2016-10-10T07:59:19.936Z,1004.95
2016-10-10T08:00:29.914Z,1004.93
2016-10-10T08:01:40.205Z,1004.9
2016-10-10T08:02:50.532Z,1004.83
2016-10-10T08:04:00.819Z,1004.87
2016-10-10T08:05:11.106Z,1004.87
2016-10-10T08:06:21.086Z,1004.86
2016-10-10T08:07:31.391Z,1004.86
2016-10-10T08:08:41.380Z,1004.93
2016-10-10T08:09:51.372Z,1004.94
2016-10-10T08:11:01.673Z,1004.95
2016-10-10T08:12:11.970Z,1004.9
2016-10-10T08:13:21.657Z,1004.92
2016-10-10T08:14:31.937Z,1004.9
2016-10-10T08:15:41.921Z,1004.94
2016-10-10T08:16:51.897Z,1004.91
2016-10-10T08:18:01.872Z,1005
2016-10-10T08:19:12.164Z,1004.99
2016-10-10T08:20:22.136Z,1004.95
2016-10-10T08:21:32.128Z,1004.93
2016-10-10T08:22:42.451Z,1004.98
2016-10-10T08:23:52.442Z,1004.99
2016-10-10T08:25:02.734Z,1005
2016-10-10T08:26:13.029Z,1005.01
2016-10-10T08:27:23.018Z,1004.99
2016-10-10T08:28:33.313Z,1005.02
2016-10-10T08:29:42.974Z,1005.03
2016-10-10T08:30:53.258Z,1005.01
2016-10-10T08:32:03.246Z,1004.96
2016-10-10T08:33:13.225Z,1005.01
2016-10-10T08:34:23.214Z,1004.98
2016-10-10T08:35:33.513Z,1005.01
2016-10-10T08:36:43.815Z,1005.03
2016-10-10T08:37:54.113Z,1005.05
2016-10-10T08:39:04.099Z,1005
2016-10-10T08:40:13.775Z,1005.05
2016-10-10T08:41:24.062Z,1004.99
2016-10-10T08:42:34.349Z,1004.99
2016-10-10T08:43:44.658Z,1004.97
2016-10-10T08:44:54.647Z,1004.98
2016-10-10T08:46:04.633Z,1004.96
2016-10-10T08:47:14.305Z,1004.99
2016-10-10T08:48:24.288Z,1005
2016-10-10T08:49:34.305Z,1004.98
2016-10-10T08:50:44.585Z,1004.96
2016-10-10T08:51:54.568Z,1004.99
2016-10-10T08:53:04.855Z,1005.03
2016-10-10T08:54:15.151Z,1004.97
2016-10-10T08:55:25.151Z,1004.99
2016-10-10T08:56:35.445Z,1004.96
2016-10-10T08:57:45.772Z,1004.93
2016-10-10T08:58:55.773Z,1004.93
2016-10-10T09:00:05.774Z,1004.92
2016-10-10T09:01:16.075Z,1004.9
2016-10-10T09:02:26.064Z,1004.98
2016-10-10T09:03:35.748Z,1004.97
2016-10-10T09:04:45.425Z,1004.96
2016-10-10T09:05:55.114Z,1004.95
2016-10-10T09:07:04.789Z,1004.96
2016-10-10T09:08:14.771Z,1004.95
2016-10-10T09:09:25.073Z,1004.95
2016-10-10T09:10:35.474Z,1004.95
2016-10-10T09:11:45.171Z,1004.96
2016-10-10T09:12:55.145Z,1005
2016-10-10T09:14:05.147Z,1004.99
2016-10-10T09:15:15.456Z,1005
2016-10-10T09:16:25.753Z,1005
2016-10-10T09:17:36.041Z,1005
2016-10-10T09:18:46.338Z,1005.04
2016-10-10T09:19:56.630Z,1004.99
2016-10-10T09:21:06.305Z,1004.99
2016-10-10T09:22:16.283Z,1005
2016-10-10T09:23:26.566Z,1004.96
2016-10-10T09:24:36.882Z,1005
2016-10-10T09:25:47.193Z,1005.03
2016-10-10T09:26:57.174Z,1005.02
2016-10-10T09:28:06.857Z,1005
2016-10-10T09:29:16.837Z,1004.99
2016-10-10T09:30:27.124Z,1004.94
2016-10-10T09:31:37.415Z,1004.94
2016-10-10T09:32:47.399Z,1004.91
2016-10-10T09:33:57.695Z,1004.93
2016-10-10T09:35:07.361Z,1004.96
2016-10-10T09:36:17.341Z,1004.89
2016-10-10T09:37:27.330Z,1004.9
2016-10-10T09:38:37.652Z,1004.85
2016-10-10T09:39:47.975Z,1004.88
2016-10-10T09:40:57.980Z,1004.86
2016-10-10T09:42:07.995Z,1004.87
2016-10-10T09:43:17.989Z,1004.94
2016-10-10T09:44:28.288Z,1004.87
2016-10-10T09:45:38.836Z,1004.88
2016-10-10T09:46:48.828Z,1004.92
2016-10-10T09:47:59.125Z,1004.91
2016-10-10T09:49:08.815Z,1004.9
2016-10-10T09:50:19.103Z,1004.9
2016-10-10T09:51:29.095Z,1004.86
2016-10-10T09:52:39.076Z,1004.83
2016-10-10T09:53:49.078Z,1004.82
2016-10-10T09:54:59.065Z,1004.78
2016-10-10T09:56:09.067Z,1004.79
2016-10-10T09:57:18.747Z,1004.78
2016-10-10T09:58:28.459Z,1004.8
2016-10-10T09:59:38.775Z,1004.77
2016-10-10T10:00:49.068Z,1004.75
2016-10-10T10:01:59.374Z,1004.72
2016-10-10T10:03:09.376Z,1004.71
2016-10-10T10:04:19.368Z,1004.71
2016-10-10T10:05:29.688Z,1004.65
2016-10-10T10:06:39.985Z,1004.62
2016-10-10T10:07:50.312Z,1004.6
2016-10-10T10:09:00.612Z,1004.62
2016-10-10T10:10:10.907Z,1004.61
2016-10-10T10:11:21.221Z,1004.56
2016-10-10T10:12:31.236Z,1004.53
2016-10-10T10:13:41.538Z,1004.56
2016-10-10T10:14:51.850Z,1004.52
2016-10-10T10:16:01.833Z,1004.45
2016-10-10T10:17:12.141Z,1004.48
2016-10-10T10:18:22.149Z,1004.44
2016-10-10T10:19:32.459Z,1004.43
2016-10-10T10:20:42.453Z,1004.38
2016-10-10T10:21:52.752Z,1004.36
2016-10-10T10:23:03.039Z,1004.33
2016-10-10T10:24:13.046Z,1004.33
2016-10-10T10:25:23.342Z,1004.3
2016-10-10T10:26:33.640Z,1004.36
2016-10-10T10:27:43.941Z,1004.35
2016-10-10T10:28:53.938Z,1004.33
2016-10-10T10:30:04.238Z,1004.36
2016-10-10T10:31:14.550Z,1004.33
2016-10-10T10:32:24.206Z,1004.35
2016-10-10T10:33:34.220Z,1004.28
2016-10-10T10:34:44.212Z,1004.25
2016-10-10T10:35:54.517Z,1004.23
2016-10-10T10:37:04.835Z,1004.21
2016-10-10T10:38:15.137Z,1004.21
2016-10-10T10:39:25.483Z,1004.2
2016-10-10T10:40:35.793Z,1004.16
2016-10-10T10:41:46.090Z,1004.14
2016-10-10T10:42:56.426Z,1004.15
2016-10-10T10:44:06.737Z,1004.13
2016-10-10T10:45:17.040Z,1004.14
2016-10-10T10:46:27.336Z,1004.16
2016-10-10T10:47:37.334Z,1004.17
2016-10-10T10:48:47.623Z,1004.09
2016-10-10T10:49:57.636Z,1004.03
2016-10-10T10:51:07.932Z,1003.99
2016-10-10T10:52:17.911Z,1003.98
2016-10-10T10:53:28.207Z,1004
2016-10-10T10:54:38.555Z,1004
2016-10-10T10:55:48.848Z,1004.01
2016-10-10T10:56:59.141Z,1004.02
2016-10-10T10:58:09.201Z,1003.99
2016-10-10T10:59:19.194Z,1003.96
2016-10-10T11:00:29.509Z,1003.89
2016-10-10T11:01:39.803Z,1003.93
2016-10-10T11:02:49.795Z,1003.89
2016-10-10T11:03:59.817Z,1003.93
2016-10-10T11:05:09.817Z,1003.95
2016-10-10T11:06:20.139Z,1003.88
2016-10-10T11:07:29.845Z,1003.87
2016-10-10T11:08:40.141Z,1003.84
2016-10-10T11:09:50.130Z,1003.81
2016-10-10T11:11:00.442Z,1003.75
2016-10-10T11:12:10.734Z,1003.76
2016-10-10T11:13:21.059Z,1003.74
2016-10-10T11:14:30.763Z,1003.74
2016-10-10T11:15:41.076Z,1003.71
2016-10-10T11:16:51.389Z,1003.69
2016-10-10T11:18:01.685Z,1003.64
2016-10-10T11:19:11.988Z,1003.68
2016-10-10T11:20:21.989Z,1003.65
2016-10-10T11:21:32.526Z,1003.61
2016-10-10T11:22:46.965Z,1003.6
2016-10-10T11:24:01.024Z,1003.58
2016-10-10T11:25:11.316Z,1003.55
2016-10-10T11:26:21.950Z,1003.51
2016-10-10T11:27:34.980Z,1003.53
2016-10-10T11:28:49.269Z,1003.57
2016-10-10T11:30:02.824Z,1003.52
2016-10-10T11:31:17.148Z,1003.56
2016-10-10T11:32:30.842Z,1003.52
2016-10-10T11:33:44.237Z,1003.5
2016-10-10T11:34:58.371Z,1003.49
2016-10-10T11:36:11.709Z,1003.5
2016-10-10T11:37:22.019Z,1003.46
2016-10-10T11:38:32.591Z,1003.48
2016-10-10T11:39:45.641Z,1003.49
2016-10-10T11:40:58.772Z,1003.51
2016-10-10T11:42:12.376Z,1003.49
2016-10-10T11:43:25.508Z,1003.43
2016-10-10T11:44:38.258Z,1003.46
2016-10-10T11:45:51.956Z,1003.41
2016-10-10T11:47:04.559Z,1003.41
2016-10-10T11:48:18.157Z,1003.41
2016-10-10T11:49:31.840Z,1003.35
2016-10-10T11:50:45.369Z,1003.39
2016-10-10T11:51:58.874Z,1003.3
2016-10-10T11:53:12.757Z,1003.32
2016-10-10T11:54:25.875Z,1003.27
2016-10-10T11:55:39.275Z,1003.23
2016-10-10T11:56:53.252Z,1003.23
2016-10-10T11:58:07.399Z,1003.21
2016-10-10T11:59:21.868Z,1003.23
2016-10-10T12:00:36.239Z,1003.24
2016-10-10T12:01:50.724Z,1003.18
2016-10-10T12:03:05.103Z,1003.16
2016-10-10T12:04:20.161Z,1003.2
2016-10-10T12:05:34.891Z,1003.19
2016-10-10T12:06:48.920Z,1003.16
2016-10-10T12:08:03.101Z,1003.14
2016-10-10T12:09:17.190Z,1003.16
2016-10-10T12:10:31.464Z,1003.15
2016-10-10T12:11:46.411Z,1003.15
2016-10-10T12:13:00.961Z,1003.14
2016-10-10T12:14:15.656Z,1003.14
2016-10-10T12:15:30.829Z,1003.13
2016-10-10T12:16:43.713Z,1003.09
2016-10-10T12:17:57.902Z,1003.1
2016-10-10T12:19:12.553Z,1003.13
2016-10-10T12:20:27.696Z,1003.12
2016-10-10T12:21:40.150Z,1003.1
2016-10-10T12:22:54.506Z,1003.14
2016-10-10T12:24:08.438Z,1003.11
2016-10-10T12:25:22.825Z,1003.12
2016-10-10T12:26:37.083Z,1003.13
2016-10-10T12:27:50.830Z,1003.13
2016-10-10T12:29:05.230Z,1003.08
2016-10-10T12:30:18.857Z,1003.08
2016-10-10T12:31:32.620Z,1003.06
2016-10-10T12:32:46.556Z,1003.08
2016-10-10T12:34:00.557Z,1003.08
2016-10-10T12:35:15.188Z,1003.05
2016-10-10T12:36:30.041Z,1003.03
2016-10-10T12:37:44.225Z,1003.03
2016-10-10T12:38:59.422Z,1003.01
2016-10-10T12:40:13.158Z,1003.04
2016-10-10T12:41:27.594Z,1003.03
2016-10-10T12:42:40.331Z,1003.03
2016-10-10T12:43:55.309Z,1003.02
2016-10-10T12:45:09.339Z,1003.02
2016-10-10T12:46:23.589Z,1002.98
2016-10-10T12:47:37.455Z,1002.95
2016-10-10T12:48:50.829Z,1003.04
2016-10-10T12:50:04.696Z,1003
2016-10-10T12:51:18.966Z,1003
2016-10-10T12:52:32.857Z,1003
2016-10-10T12:53:45.985Z,1002.99
2016-10-10T12:55:01.033Z,1002.98
2016-10-10T12:56:14.959Z,1002.91
2016-10-10T12:57:29.245Z,1002.88
2016-10-10T12:58:42.701Z,1002.9
2016-10-10T12:59:56.510Z,1002.86
2016-10-10T13:01:10.673Z,1002.83
2016-10-10T13:02:20.982Z,1002.84
2016-10-10T13:03:30.974Z,1002.85
2016-10-10T13:04:41.277Z,1002.84
2016-10-10T13:05:51.779Z,1002.8
2016-10-10T13:07:02.094Z,1002.8
2016-10-10T13:08:11.785Z,1002.79
2016-10-10T13:09:21.797Z,1002.74
2016-10-10T13:10:31.793Z,1002.74
2016-10-10T13:11:42.106Z,1002.77
2016-10-10T13:12:52.831Z,1002.75
2016-10-10T13:14:02.522Z,1002.71
2016-10-10T13:15:12.555Z,1002.72
2016-10-10T13:16:22.571Z,1002.68
2016-10-10T13:17:32.565Z,1002.69
2016-10-10T13:18:42.875Z,1002.66
2016-10-10T13:19:52.879Z,1002.67
2016-10-10T13:21:03.203Z,1002.69
2016-10-10T13:22:13.199Z,1002.68
2016-10-10T13:23:23.194Z,1002.64
2016-10-10T13:24:33.520Z,1002.64
2016-10-10T13:25:43.835Z,1002.61
2016-10-10T13:26:54.138Z,1002.57
2016-10-10T13:28:03.832Z,1002.58
2016-10-10T13:29:14.127Z,1002.54
2016-10-10T13:30:24.126Z,1002.54
2016-10-10T13:31:34.137Z,1002.56
2016-10-10T13:32:44.441Z,1002.55
2016-10-10T13:33:54.133Z,1002.5
2016-10-10T13:35:04.134Z,1002.53
2016-10-10T13:36:14.451Z,1002.54
2016-10-10T13:37:24.764Z,1002.5
2016-10-10T13:38:34.745Z,1002.48
2016-10-10T13:39:44.447Z,1002.48
2016-10-10T13:40:54.477Z,1002.49
2016-10-10T13:42:04.910Z,1002.44
2016-10-10T13:43:14.925Z,1002.46
2016-10-10T13:44:25.146Z,1002.44
2016-10-10T13:45:35.487Z,1002.41
2016-10-10T13:46:45.503Z,1002.41
2016-10-10T13:47:56.039Z,1002.41
2016-10-10T13:49:06.330Z,1002.41
2016-10-10T13:50:16.332Z,1002.37
2016-10-10T13:51:26.313Z,1002.4
2016-10-10T13:52:36.314Z,1002.37
2016-10-10T13:53:46.319Z,1002.43
2016-10-10T13:54:56.615Z,1002.41
2016-10-10T13:56:06.298Z,1002.44
2016-10-10T13:57:16.288Z,1002.45
2016-10-10T13:58:26.596Z,1002.45
2016-10-10T13:59:36.592Z,1002.43
2016-10-10T14:00:46.890Z,1002.43
2016-10-10T14:01:56.894Z,1002.4
2016-10-10T14:03:06.901Z,1002.36
2016-10-10T14:04:16.870Z,1002.39
2016-10-10T14:05:27.204Z,1002.35
2016-10-10T14:06:37.193Z,1002.32
2016-10-10T14:07:47.491Z,1002.29
2016-10-10T14:08:57.806Z,1002.32
2016-10-10T14:10:08.097Z,1002.25
2016-10-10T14:11:18.083Z,1002.29
2016-10-10T14:12:28.428Z,1002.25
2016-10-10T14:13:38.432Z,1002.24
2016-10-10T14:14:48.728Z,1002.22
2016-10-10T14:15:58.730Z,1002.26
2016-10-10T14:17:09.048Z,1002.2
2016-10-10T14:18:19.043Z,1002.19
2016-10-10T14:19:29.564Z,1002.2
2016-10-10T14:20:39.549Z,1002.22
2016-10-10T14:21:49.639Z,1002.17
2016-10-10T14:22:59.652Z,1002.18
2016-10-10T14:24:09.361Z,1002.2
2016-10-10T14:25:19.659Z,1002.14
2016-10-10T14:26:30.099Z,1002.11
2016-10-10T14:27:40.420Z,1002.11
2016-10-10T14:28:50.399Z,1002.09
2016-10-10T14:30:00.385Z,1002.1
2016-10-10T14:31:10.697Z,1002.08
2016-10-10T14:32:20.373Z,1002.04
2016-10-10T14:33:30.055Z,1002.08
2016-10-10T14:34:40.067Z,1002.07
2016-10-10T14:35:50.370Z,1002.05
2016-10-10T14:37:00.358Z,1002.06
2016-10-10T14:38:10.661Z,1002.09
2016-10-10T14:39:20.654Z,1002.06
2016-10-10T14:40:30.641Z,1002.11
2016-10-10T14:41:40.332Z,1002.09
2016-10-10T14:42:50.650Z,1002.07
2016-10-10T14:44:00.651Z,1002.12
2016-10-10T14:45:10.962Z,1002.09
2016-10-10T14:46:21.292Z,1002.11
2016-10-10T14:47:31.605Z,1002.11